Time;durP1;ratioP1;P1;durP2;ratioP2;P2;SDS_P1;SDS_P2;PMS_P1;PMS_P2;Temp;Humidity;BMP_temperature;BMP_pressure;BME280_temperature;BME280_humidity;BME280_pressure;Samples;Min_cycle;Max_cycle;Signal;HPM_P1;HPM_P2
2021/12/29 00:00:59;;;;;;;4.35;1.50;;;17.70;94.40;;;;;;5031403;28;20033;-66
2021/12/29 00:03:27;;;;;;;6.60;1.50;;;17.80;94.50;;;;;;5013448;28;20029;-66
2021/12/29 00:05:54;;;;;;;4.25;1.40;;;17.90;94.60;;;;;;5030767;28;20563;-66
2021/12/29 00:08:21;;;;;;;5.30;1.40;;;17.90;94.60;;;;;;5031326;28;20396;-67
2021/12/29 00:10:54;;;;;;;3.72;1.02;;;18.00;94.50;;;;;;5013129;28;20041;-67
2021/12/29 00:13:26;;;;;;;2.40;1.20;;;18.00;94.30;;;;;;5031288;28;20033;-66
2021/12/29 00:15:57;;;;;;;4.22;1.17;;;17.90;94.20;;;;;;5013230;28;20048;-67
2021/12/29 00:18:31;;;;;;;3.92;1.20;;;17.90;94.40;;;;;;5031262;28;20033;-65
2021/12/29 00:20:59;;;;;;;5.75;1.30;;;17.90;94.40;;;;;;5031302;28;20495;-66
2021/12/29 00:23:27;;;;;;;6.35;1.30;;;17.90;94.40;;;;;;5013608;28;20070;-66
2021/12/29 00:25:54;;;;;;;6.00;1.40;;;17.90;94.60;;;;;;5031371;28;20536;-66
2021/12/29 00:28:21;;;;;;;1.98;1.00;;;17.90;94.50;;;;;;5013662;28;20522;-66
2021/12/29 00:30:49;;;;;;;3.05;1.23;;;18.00;94.40;;;;;;5030998;28;20052;-66
2021/12/29 00:33:16;;;;;;;2.65;1.08;;;18.00;94.70;;;;;;5030932;28;20042;-66
2021/12/29 00:35:44;;;;;;;3.75;1.30;;;18.10;94.80;;;;;;5031184;28;20140;-67
2021/12/29 00:38:11;;;;;;;4.90;1.20;;;18.00;94.40;;;;;;5031286;28;20025;-67
2021/12/29 00:40:39;;;;;;;3.47;1.15;;;18.00;94.40;;;;;;5030989;28;20040;-67
2021/12/29 00:43:06;;;;;;;4.85;1.23;;;18.00;94.50;;;;;;5031229;28;20058;-67
2021/12/29 00:45:35;;;;;;;3.95;1.27;;;18.00;94.60;;;;;;5031080;28;20029;-67
2021/12/29 00:48:04;;;;;;;3.13;1.13;;;18.00;94.50;;;;;;5031222;28;20044;-67
2021/12/29 00:50:33;;;;;;;5.15;1.50;;;18.10;94.60;;;;;;5030779;28;20073;-67
2021/12/29 00:53:00;;;;;;;3.42;1.20;;;18.10;94.20;;;;;;5013659;28;20619;-66
2021/12/29 00:55:27;;;;;;;3.35;1.45;;;18.10;94.40;;;;;;5031097;28;20041;-66
2021/12/29 00:57:55;;;;;;;4.97;1.08;;;18.10;94.50;;;;;;5031040;28;20387;-67
2021/12/29 01:00:23;;;;;;;5.15;1.25;;;18.20;94.50;;;;;;5030632;28;20099;-66
2021/12/29 01:02:51;;;;;;;4.88;1.30;;;18.20;94.30;;;;;;5030786;28;20041;-67
2021/12/29 01:05:18;;;;;;;5.65;1.45;;;18.20;94.30;;;;;;5030789;28;20112;-66
2021/12/29 01:07:47;;;;;;;4.13;1.13;;;18.10;94.20;;;;;;5030872;28;20026;-67
2021/12/29 01:10:15;;;;;;;3.63;1.27;;;18.10;94.30;;;;;;5030508;28;20465;-67
2021/12/29 01:12:52;;;;;;;3.85;1.10;;;18.10;94.30;;;;;;5031026;28;20043;-67
2021/12/29 01:15:25;;;;;;;4.35;1.10;;;18.10;94.40;;;;;;5016949;28;20472;-67
2021/12/29 01:17:53;;;;;;;8.30;1.98;;;18.20;94.30;;;;;;5034389;28;20076;-67
2021/12/29 01:20:21;;;;;;;3.25;1.42;;;18.20;94.30;;;;;;5034311;28;20473;-67
2021/12/29 01:22:48;;;;;;;3.17;1.20;;;18.20;94.20;;;;;;5034398;28;20057;-67
2021/12/29 01:25:16;;;;;;;2.63;1.05;;;18.20;94.00;;;;;;5034757;28;20076;-66
2021/12/29 01:27:43;;;;;;;2.42;1.08;;;18.20;94.00;;;;;;5034364;28;20033;-67
2021/12/29 01:30:11;;;;;;;4.72;1.10;;;18.20;93.60;;;;;;5034218;28;20041;-66
2021/12/29 01:32:39;;;;;;;1.98;1.15;;;18.20;93.80;;;;;;5034103;28;20491;-67
2021/12/29 01:35:07;;;;;;;4.53;1.10;;;18.30;93.80;;;;;;5000249;28;20131;-67
2021/12/29 01:37:34;;;;;;;2.47;0.93;;;18.20;93.50;;;;;;5034377;28;20559;-67
2021/12/29 01:40:01;;;;;;;3.33;0.98;;;18.20;93.40;;;;;;5033975;28;20037;-67
2021/12/29 01:42:29;;;;;;;6.80;1.20;;;18.20;93.40;;;;;;5016300;28;20123;-67
2021/12/29 01:44:56;;;;;;;3.03;0.98;;;18.30;93.30;;;;;;5016231;28;20045;-67
2021/12/29 01:47:30;;;;;;;2.28;0.98;;;18.30;93.30;;;;;;5016353;28;20053;-67
2021/12/29 01:50:00;;;;;;;1.65;0.82;;;18.30;93.40;;;;;;5033708;28;20041;-67
2021/12/29 01:52:32;;;;;;;1.65;0.70;;;18.40;93.20;;;;;;5034228;28;20372;-67
2021/12/29 01:54:59;;;;;;;2.17;1.10;;;18.40;92.70;;;;;;5033581;28;20037;-67
2021/12/29 01:57:26;;;;;;;1.75;0.60;;;18.40;92.30;;;;;;5033805;28;20551;-67
2021/12/29 01:59:53;;;;;;;6.05;1.05;;;18.30;92.30;;;;;;5033600;28;20096;-67
2021/12/29 02:02:20;;;;;;;3.72;0.93;;;18.40;91.90;;;;;;5033548;28;20038;-67
2021/12/29 02:04:48;;;;;;;3.05;0.80;;;18.40;91.60;;;;;;5033579;28;20041;-67
2021/12/29 02:07:15;;;;;;;3.38;0.90;;;18.50;91.50;;;;;;5015733;28;20438;-67
2021/12/29 02:09:43;;;;;;;3.20;0.85;;;18.50;91.20;;;;;;5033406;28;20065;-67
2021/12/29 02:12:10;;;;;;;3.05;0.85;;;18.50;90.30;;;;;;5033817;28;20357;-67
2021/12/29 02:14:37;;;;;;;3.88;0.90;;;18.50;90.40;;;;;;5033268;28;20377;-67
2021/12/29 02:17:04;;;;;;;2.38;1.00;;;18.50;89.70;;;;;;5033173;28;20515;-67
2021/12/29 02:19:32;;;;;;;2.13;0.95;;;18.50;89.30;;;;;;5033277;28;20360;-67
2021/12/29 02:22:12;;;;;;;7.18;1.17;;;18.50;89.00;;;;;;5033575;28;20447;-67
2021/12/29 02:24:42;;;;;;;4.50;1.02;;;18.50;88.80;;;;;;5033384;28;20080;-67
2021/12/29 02:27:12;;;;;;;3.20;1.00;;;18.60;88.50;;;;;;5032772;28;20036;-67
2021/12/29 02:29:40;;;;;;;3.75;0.93;;;18.60;88.30;;;;;;5033103;28;20113;-67
2021/12/29 02:32:08;;;;;;;2.38;1.17;;;18.70;88.00;;;;;;5015471;28;20111;-67
2021/12/29 02:34:35;;;;;;;4.20;1.40;;;18.70;87.70;;;;;;5015549;28;20480;-69
2021/12/29 02:37:03;;;;;;;2.80;1.02;;;18.70;87.60;;;;;;5032933;28;20040;-67
2021/12/29 02:39:32;;;;;;;2.50;0.90;;;18.70;85.80;;;;;;5032774;28;20568;-67
2021/12/29 02:42:04;;;;;;;5.18;1.02;;;18.70;86.40;;;;;;5032758;28;20036;-68
2021/12/29 02:44:38;;;;;;;3.80;1.02;;;18.70;86.10;;;;;;5015605;28;20372;-67
2021/12/29 02:47:05;;;;;;;4.93;1.15;;;18.80;85.70;;;;;;5033032;28;20456;-68
2021/12/29 02:49:32;;;;;;;2.75;1.10;;;18.80;84.60;;;;;;5015288;28;20073;-67
2021/12/29 02:51:59;;;;;;;4.00;1.00;;;18.80;83.00;;;;;;5032612;28;20060;-67
2021/12/29 02:54:27;;;;;;;4.95;1.10;;;18.90;83.60;;;;;;5032617;28;20029;-67
2021/12/29 02:56:57;;;;;;;2.40;0.98;;;19.00;83.30;;;;;;5014975;28;20026;-68
2021/12/29 02:59:24;;;;;;;1.63;0.73;;;19.00;82.90;;;;;;5032287;28;20034;-67
2021/12/29 03:01:52;;;;;;;3.78;1.05;;;19.00;81.20;;;;;;5035453;23;20070;-69
2021/12/29 03:04:19;;;;;;;2.63;1.10;;;19.00;79.90;;;;;;5011331;28;20485;-69
2021/12/29 03:06:46;;;;;;;7.97;1.65;;;19.10;81.30;;;;;;5012870;28;20034;-69
2021/12/29 03:09:16;;;;;;;2.85;1.15;;;19.20;82.90;;;;;;5012585;28;20065;-69
2021/12/29 03:11:44;;;;;;;2.75;1.00;;;19.20;83.60;;;;;;5012391;28;20037;-69
2021/12/29 03:14:11;;;;;;;5.13;1.55;;;19.20;84.30;;;;;;5012613;28;20400;-69
2021/12/29 03:16:39;;;;;;;4.43;1.15;;;19.20;84.70;;;;;;5011358;28;20053;-69
2021/12/29 03:19:06;;;;;;;3.83;1.23;;;19.20;85.10;;;;;;5011190;28;20116;-69
2021/12/29 03:21:34;;;;;;;4.13;1.20;;;19.20;85.30;;;;;;5012100;28;20105;-68
2021/12/29 03:24:01;;;;;;;3.40;1.27;;;19.20;85.80;;;;;;5012068;28;20033;-68
2021/12/29 03:26:28;;;;;;;3.35;1.15;;;19.20;86.20;;;;;;5012580;28;20503;-69
2021/12/29 03:28:57;;;;;;;3.85;1.20;;;19.20;86.40;;;;;;5012370;28;20116;-69
2021/12/29 03:31:25;;;;;;;3.40;1.00;;;19.30;86.30;;;;;;5011110;28;20064;-69
2021/12/29 03:33:52;;;;;;;4.53;1.02;;;19.30;86.10;;;;;;5012205;28;20118;-69
2021/12/29 03:36:20;;;;;;;2.22;1.02;;;19.40;86.20;;;;;;5012126;28;20400;-68
2021/12/29 03:38:48;;;;;;;4.40;1.90;;;19.50;86.30;;;;;;4962140;28;20058;-69
2021/12/29 03:41:17;;;;;;;7.90;2.72;;;19.50;86.50;;;;;;4995200;28;20034;-68
2021/12/29 03:43:44;;;;;;;4.90;2.20;;;19.50;86.40;;;;;;5012202;28;20464;-69
2021/12/29 03:46:12;;;;;;;2.95;1.55;;;19.50;86.30;;;;;;5012151;28;20113;-69
2021/12/29 03:48:40;;;;;;;3.63;1.45;;;19.60;86.20;;;;;;5012085;28;20058;-69
2021/12/29 03:51:07;;;;;;;1.95;1.00;;;19.60;86.10;;;;;;4994556;28;20053;-69
2021/12/29 03:53:35;;;;;;;3.50;1.73;;;19.60;86.00;;;;;;5012104;28;20030;-69
2021/12/29 03:56:02;;;;;;;3.72;1.10;;;19.60;85.70;;;;;;5011865;28;20448;-69
2021/12/29 03:58:29;;;;;;;1.77;1.17;;;19.60;85.60;;;;;;5012073;28;20078;-69
2021/12/29 04:01:02;;;;;;;3.13;1.25;;;19.60;85.40;;;;;;4994390;28;20056;-69
2021/12/29 04:03:29;;;;;;;5.10;1.08;;;19.70;85.40;;;;;;5011670;28;20451;-69
2021/12/29 04:05:57;;;;;;;3.00;0.82;;;19.70;85.50;;;;;;4994162;28;20026;-69
2021/12/29 04:08:24;;;;;;;3.50;1.33;;;19.80;85.60;;;;;;5011611;28;20038;-69
2021/12/29 04:10:51;;;;;;;5.93;1.38;;;19.80;85.70;;;;;;5011817;28;20038;-68
2021/12/29 04:13:18;;;;;;;4.03;1.20;;;19.90;85.20;;;;;;5012044;28;20058;-68
2021/12/29 04:15:45;;;;;;;2.45;1.17;;;19.90;85.00;;;;;;5011746;28;20041;-68
2021/12/29 04:18:25;;;;;;;8.40;2.38;;;19.90;84.60;;;;;;5010376;28;20499;-69
2021/12/29 04:20:57;;;;;;;6.72;1.88;;;19.90;84.70;;;;;;5010479;28;20089;-69
2021/12/29 04:23:30;;;;;;;4.55;2.88;;;19.80;84.40;;;;;;5011694;28;20050;-69
2021/12/29 04:25:58;;;;;;;5.25;1.90;;;19.80;84.40;;;;;;5011655;28;20516;-69
2021/12/29 04:28:26;;;;;;;4.25;1.90;;;19.80;84.20;;;;;;4994422;28;20030;-69
2021/12/29 04:31:12;;;;;;;2.45;1.13;;;19.90;84.40;;;;;;4994284;28;20065;-69
2021/12/29 04:33:39;;;;;;;2.38;1.00;;;19.80;83.80;;;;;;5011581;28;20030;-68
2021/12/29 04:36:07;;;;;;;4.88;1.00;;;19.80;83.80;;;;;;5011931;28;20034;-69
2021/12/29 04:38:34;;;;;;;4.78;1.42;;;19.80;83.50;;;;;;5011332;28;20045;-69
2021/12/29 04:41:01;;;;;;;5.05;1.10;;;19.80;83.60;;;;;;5011679;28;20041;-69
2021/12/29 04:43:28;;;;;;;2.92;1.13;;;19.80;83.30;;;;;;4994711;28;20457;-69
2021/12/29 04:45:55;;;;;;;5.18;1.20;;;19.80;82.90;;;;;;5011610;28;20074;-69
2021/12/29 04:48:24;;;;;;;5.28;1.63;;;19.80;82.90;;;;;;5012258;28;20420;-68
2021/12/29 04:51:04;;;;;;;2.53;0.95;;;19.90;83.10;;;;;;5015454;28;20042;-69
2021/12/29 04:53:31;;;;;;;;;;;19.90;82.40;;;;;;5016113;28;20033;-69
2021/12/29 04:55:58;;;;;;;3.50;0.80;;;19.90;82.70;;;;;;5015109;28;19909;-69
2021/12/29 04:58:25;;;;;;;7.20;1.20;;;20.00;82.60;;;;;;5015418;28;20083;-68
2021/12/29 05:00:52;;;;;;;3.28;0.90;;;20.00;82.50;;;;;;4997777;28;20064;-68
2021/12/29 05:03:20;;;;;;;3.47;1.17;;;20.00;82.20;;;;;;5014704;28;20054;-69
2021/12/29 05:08:44;;;;;;;4.70;1.20;;;20.00;81.70;;;;;;4944585;28;20091;-68
2021/12/29 05:11:13;;;;;;;4.03;1.10;;;20.00;81.60;;;;;;4997457;28;20566;-68
2021/12/29 05:13:41;;;;;;;2.78;1.23;;;20.00;81.40;;;;;;4997395;28;20132;-68
2021/12/29 05:16:09;;;;;;;3.58;1.30;;;20.00;81.50;;;;;;4996907;28;20045;-68
2021/12/29 05:18:36;;;;;;;4.68;1.30;;;20.00;80.70;;;;;;5014767;28;20093;-68
2021/12/29 05:21:04;;;;;;;2.75;0.90;;;20.00;79.30;;;;;;5014373;28;20456;-68
2021/12/29 05:23:32;;;;;;;2.03;0.90;;;20.00;80.10;;;;;;5014435;28;20034;-69
2021/12/29 05:25:59;;;;;;;4.82;1.30;;;20.10;80.10;;;;;;5014431;28;20037;-68
2021/12/29 05:28:26;;;;;;;4.30;1.30;;;20.20;79.80;;;;;;5014523;28;20036;-68
2021/12/29 05:30:53;;;;;;;6.10;1.15;;;20.10;78.90;;;;;;5013999;28;20046;-68
2021/12/29 05:33:21;;;;;;;4.65;1.55;;;20.10;79.20;;;;;;5014306;28;20037;-68
2021/12/29 05:35:48;;;;;;;4.93;1.40;;;20.20;77.90;;;;;;4996776;28;20053;-68
2021/12/29 05:38:15;;;;;;;6.63;3.55;;;20.30;77.90;;;;;;5014189;28;20526;-68
2021/12/29 05:40:42;;;;;;;5.93;4.38;;;20.30;76.90;;;;;;5014102;28;20030;-68
2021/12/29 05:43:09;;;;;;;4.28;3.05;;;20.40;75.00;;;;;;4996352;28;20029;-69
2021/12/29 05:45:37;;;;;;;5.25;3.10;;;20.50;75.10;;;;;;5012798;28;20049;-68
2021/12/29 05:48:04;;;;;;;1.73;1.42;;;20.60;75.80;;;;;;5014111;28;20034;-68
2021/12/29 05:50:31;;;;;;;2.85;1.58;;;20.60;75.40;;;;;;5013346;28;20125;-68
2021/12/29 05:53:01;;;;;;;4.95;2.80;;;20.70;74.80;;;;;;5013461;28;20464;-68
2021/12/29 05:55:29;;;;;;;3.90;1.58;;;20.70;74.50;;;;;;4996536;28;20448;-68
2021/12/29 05:57:56;;;;;;;3.85;1.50;;;20.80;73.90;;;;;;5014023;28;20062;-68
2021/12/29 06:00:24;;;;;;;2.35;0.98;;;20.80;73.50;;;;;;4995345;28;20049;-68
2021/12/29 06:02:51;;;;;;;2.80;1.08;;;20.80;71.30;;;;;;4995978;28;20052;-68
2021/12/29 06:05:19;;;;;;;3.33;0.93;;;20.80;73.00;;;;;;4996342;28;20076;-68
2021/12/29 06:07:46;;;;;;;2.50;1.00;;;20.80;72.40;;;;;;5013367;28;20030;-68
2021/12/29 06:10:13;;;;;;;1.92;1.00;;;20.80;72.00;;;;;;5013221;28;20105;-68
2021/12/29 06:12:41;;;;;;;2.85;1.40;;;20.80;72.40;;;;;;4995977;28;20038;-68
2021/12/29 06:15:08;;;;;;;4.25;1.48;;;20.90;71.20;;;;;;5013257;28;20042;-68
2021/12/29 06:17:36;;;;;;;2.60;1.33;;;20.90;71.80;;;;;;5012206;28;20057;-68
2021/12/29 06:20:03;;;;;;;4.20;1.40;;;20.80;72.10;;;;;;5013018;28;20117;-68
2021/12/29 06:22:31;;;;;;;5.63;0.82;;;20.90;72.50;;;;;;5011952;28;20040;-68
2021/12/29 06:24:58;;;;;;;1.38;0.90;;;20.90;72.70;;;;;;5013300;28;20030;-68
2021/12/29 06:27:25;;;;;;;1.33;0.88;;;20.90;73.30;;;;;;4995737;28;20057;-68
2021/12/29 06:29:52;;;;;;;2.67;1.30;;;21.00;73.40;;;;;;5013157;28;20346;-68
2021/12/29 06:32:20;;;;;;;3.65;1.38;;;21.00;73.20;;;;;;5012553;28;20038;-68
2021/12/29 06:34:47;;;;;;;2.28;0.90;;;20.90;73.50;;;;;;5013321;28;20029;-68
2021/12/29 06:37:15;;;;;;;3.78;1.05;;;20.90;74.10;;;;;;5012870;28;20041;-68
2021/12/29 06:39:43;;;;;;;2.60;0.90;;;20.80;73.60;;;;;;4995446;28;20168;-68
2021/12/29 06:42:11;;;;;;;2.97;0.90;;;20.80;71.90;;;;;;4995237;28;20092;-68
2021/12/29 06:44:38;;;;;;;2.40;0.88;;;20.80;72.00;;;;;;4995428;28;20032;-68
2021/12/29 06:47:06;;;;;;;3.55;1.52;;;20.70;72.30;;;;;;5012895;28;20038;-68
2021/12/29 06:49:33;;;;;;;5.80;1.52;;;20.80;72.50;;;;;;5012837;28;20041;-69
2021/12/29 06:52:01;;;;;;;2.78;1.38;;;20.80;72.20;;;;;;4995732;28;20060;-68
2021/12/29 06:54:29;;;;;;;2.28;1.30;;;20.70;72.70;;;;;;5013049;28;20034;-68
2021/12/29 06:56:56;;;;;;;2.85;1.13;;;20.80;72.60;;;;;;5012877;28;20034;-68
2021/12/29 06:59:23;;;;;;;3.45;1.30;;;20.80;72.80;;;;;;5012993;28;20046;-67
2021/12/29 07:01:51;;;;;;;3.15;1.10;;;20.80;73.00;;;;;;5012540;28;20033;-68
2021/12/29 07:04:18;;;;;;;3.65;1.15;;;20.80;73.50;;;;;;5012949;28;20503;-68
2021/12/29 07:06:45;;;;;;;6.05;1.38;;;20.80;73.00;;;;;;5012890;28;20097;-68
2021/12/29 07:09:12;;;;;;;1.45;0.80;;;20.80;73.30;;;;;;5012590;28;20476;-68
2021/12/29 07:11:39;;;;;;;2.53;1.00;;;20.80;73.50;;;;;;5012658;28;20088;-68
2021/12/29 07:14:09;;;;;;;3.08;0.98;;;20.80;73.70;;;;;;5012748;28;20037;-68
2021/12/29 07:16:37;;;;;;;3.35;0.95;;;20.80;71.70;;;;;;4993536;28;20046;-68
2021/12/29 07:19:05;;;;;;;3.70;1.15;;;20.80;72.70;;;;;;5012829;28;20037;-68
2021/12/29 07:21:32;;;;;;;3.08;0.98;;;20.80;72.90;;;;;;5012722;28;20096;-68
2021/12/29 07:23:59;;;;;;;2.67;1.00;;;20.80;73.10;;;;;;5012637;28;20030;-68
2021/12/29 07:26:27;;;;;;;2.63;0.73;;;20.80;73.30;;;;;;5012491;28;20034;-68
2021/12/29 07:28:56;;;;;;;2.20;0.60;;;20.80;71.80;;;;;;5012371;28;20437;-68
2021/12/29 07:31:23;;;;;;;2.38;0.80;;;20.70;70.40;;;;;;5012336;28;20081;-68
2021/12/29 07:33:50;;;;;;;3.50;0.95;;;20.70;71.10;;;;;;5012525;28;20069;-68
2021/12/29 07:36:17;;;;;;;5.30;3.90;;;20.70;71.70;;;;;;5012531;28;20081;-68
2021/12/29 07:38:45;;;;;;;3.55;1.30;;;20.80;71.80;;;;;;5012120;28;20400;-68
2021/12/29 07:41:12;;;;;;;2.33;1.08;;;20.70;71.40;;;;;;5012096;28;20034;-69
2021/12/29 07:43:39;;;;;;;2.63;1.00;;;20.70;71.20;;;;;;4994743;28;20045;-68
2021/12/29 07:46:07;;;;;;;2.10;0.93;;;20.70;71.10;;;;;;5011803;28;20034;-68
2021/12/29 07:48:34;;;;;;;2.10;0.90;;;20.80;71.20;;;;;;4994684;28;20038;-68
2021/12/29 07:51:03;;;;;;;3.17;0.75;;;20.70;71.00;;;;;;5012059;28;20046;-68
2021/12/29 07:53:30;;;;;;;1.95;0.73;;;20.70;70.90;;;;;;5012258;28;20026;-68
2021/12/29 07:55:57;;;;;;;2.58;0.95;;;20.70;71.30;;;;;;5011922;28;20109;-68
2021/12/29 07:58:25;;;;;;;3.20;0.90;;;20.70;70.70;;;;;;4994865;28;20026;-68
2021/12/29 08:00:52;;;;;;;2.50;1.05;;;20.70;71.40;;;;;;5012099;28;20100;-68
2021/12/29 08:03:19;;;;;;;4.68;1.27;;;20.70;71.10;;;;;;5011954;28;20201;-68
2021/12/29 08:05:46;;;;;;;2.53;1.17;;;20.70;71.50;;;;;;5012035;28;20040;-68
2021/12/29 08:08:13;;;;;;;3.72;1.85;;;20.70;71.60;;;;;;5012156;28;20038;-68
2021/12/29 08:10:41;;;;;;;4.00;1.00;;;20.70;71.70;;;;;;5007817;28;20042;-68
2021/12/29 08:13:08;;;;;;;4.88;1.00;;;20.60;71.40;;;;;;4994403;28;20121;-68
2021/12/29 08:15:36;;;;;;;1.40;0.82;;;20.70;71.40;;;;;;5011921;28;20120;-68
2021/12/29 08:18:04;;;;;;;3.25;0.88;;;20.60;71.80;;;;;;5011816;28;20026;-68
2021/12/29 08:20:32;;;;;;;3.92;1.00;;;20.70;71.90;;;;;;5011520;28;20084;-68
2021/12/29 08:23:00;;;;;;;2.80;1.05;;;20.70;72.20;;;;;;5011707;28;20045;-68
2021/12/29 08:25:27;;;;;;;1.48;0.85;;;20.60;72.50;;;;;;5015717;28;20038;-68
2021/12/29 08:27:54;;;;;;;3.10;1.15;;;20.60;72.90;;;;;;5015643;28;20038;-68
2021/12/29 08:30:21;;;;;;;5.25;1.20;;;20.60;73.10;;;;;;5015750;28;20046;-68
2021/12/29 08:32:48;;;;;;;3.22;1.00;;;20.60;73.00;;;;;;5014505;28;20126;-68
2021/12/29 08:35:16;;;;;;;3.38;1.00;;;20.60;72.20;;;;;;4998071;28;20408;-68
2021/12/29 08:37:43;;;;;;;4.43;1.05;;;20.60;72.10;;;;;;5015363;28;20065;-68
2021/12/29 08:40:10;;;;;;;3.03;1.20;;;20.50;72.40;;;;;;4997586;28;20029;-68
2021/12/29 08:42:38;;;;;;;4.93;1.75;;;20.50;72.50;;;;;;5015438;28;20041;-68
2021/12/29 08:45:06;;;;;;;3.55;1.27;;;20.50;72.80;;;;;;5015329;28;20056;-68
2021/12/29 08:47:33;;;;;;;3.92;1.30;;;20.50;72.60;;;;;;5015290;28;20381;-68
2021/12/29 08:50:00;;;;;;;2.90;1.10;;;20.50;72.20;;;;;;4997216;28;20484;-68
2021/12/29 08:52:28;;;;;;;2.78;0.98;;;20.60;72.00;;;;;;5014963;28;20118;-68
2021/12/29 08:54:55;;;;;;;2.50;0.90;;;20.50;72.10;;;;;;5014871;28;20042;-68
2021/12/29 08:57:22;;;;;;;4.22;1.00;;;20.40;72.10;;;;;;5015264;28;20456;-68
2021/12/29 08:59:49;;;;;;;1.92;0.80;;;20.50;72.30;;;;;;5015080;28;20042;-68
2021/12/29 09:02:16;;;;;;;2.30;0.70;;;20.40;72.40;;;;;;5014961;28;20054;-68
2021/12/29 09:04:43;;;;;;;3.42;1.23;;;20.40;72.10;;;;;;5014710;28;20041;-68
2021/12/29 09:07:10;;;;;;;3.95;0.82;;;20.40;72.40;;;;;;5014673;28;20475;-68
2021/12/29 09:09:37;;;;;;;3.38;0.98;;;20.40;72.30;;;;;;5014713;28;20049;-68
2021/12/29 09:12:05;;;;;;;3.22;0.93;;;20.40;72.40;;;;;;5014668;28;20169;-68
2021/12/29 09:14:32;;;;;;;4.10;1.10;;;20.40;72.30;;;;;;5014393;28;20069;-69
2021/12/29 09:16:59;;;;;;;2.20;0.80;;;20.30;72.40;;;;;;5014544;28;20030;-68
2021/12/29 09:19:26;;;;;;;1.95;0.77;;;20.30;72.10;;;;;;5014406;28;20480;-68
2021/12/29 09:21:56;;;;;;;3.72;1.08;;;20.30;72.00;;;;;;5014526;28;20030;-68
2021/12/29 09:24:23;;;;;;;2.78;1.13;;;20.30;71.80;;;;;;5014137;28;20064;-68
2021/12/29 09:26:50;;;;;;;2.17;0.80;;;20.30;71.70;;;;;;5014738;28;20476;-68
2021/12/29 09:29:17;;;;;;;4.15;1.00;;;20.30;71.60;;;;;;5014368;28;20068;-68
2021/12/29 09:31:44;;;;;;;2.03;0.85;;;20.30;71.20;;;;;;5014319;28;20076;-68
2021/12/29 09:34:11;;;;;;;2.15;0.98;;;20.30;71.00;;;;;;5014393;28;20404;-68
2021/12/29 09:36:39;;;;;;;4.05;1.10;;;20.30;71.00;;;;;;5013100;28;20034;-68
2021/12/29 09:39:06;;;;;;;2.10;0.90;;;20.20;70.90;;;;;;5014421;28;20022;-68
2021/12/29 09:41:33;;;;;;;2.90;0.70;;;20.20;70.90;;;;;;5014154;28;20081;-68
2021/12/29 09:44:00;;;;;;;1.48;0.75;;;20.20;70.80;;;;;;5014223;28;20053;-68
2021/12/29 09:46:28;;;;;;;2.03;0.80;;;20.20;70.70;;;;;;4996532;28;20467;-68
2021/12/29 09:48:55;;;;;;;2.63;1.00;;;20.20;70.70;;;;;;4996415;28;20041;-68
2021/12/29 09:51:22;;;;;;;4.85;2.78;;;20.20;70.70;;;;;;5013695;28;20042;-68
2021/12/29 09:53:50;;;;;;;3.63;2.60;;;20.20;70.40;;;;;;5014035;28;20473;-68
2021/12/29 09:56:17;;;;;;;2.60;1.42;;;20.20;70.50;;;;;;5013643;28;20089;-68
2021/12/29 09:58:44;;;;;;;1.90;1.10;;;20.20;70.50;;;;;;5013976;28;20038;-68
2021/12/29 10:01:12;;;;;;;3.80;1.60;;;20.20;70.30;;;;;;5013675;28;20400;-68
2021/12/29 10:03:39;;;;;;;3.10;0.95;;;20.20;70.30;;;;;;5012492;28;20049;-68
2021/12/29 10:06:08;;;;;;;3.45;1.00;;;20.10;70.30;;;;;;5013441;28;20033;-68
2021/12/29 10:08:40;;;;;;;4.75;0.88;;;20.10;70.20;;;;;;4995888;28;20052;-68
2021/12/29 10:11:14;;;;;;;2.05;1.08;;;20.10;70.20;;;;;;5013630;28;20038;-68
2021/12/29 10:13:43;;;;;;;5.05;1.30;;;20.10;70.10;;;;;;4996324;28;20127;-68
2021/12/29 10:16:30;;;;;;;1.98;0.90;;;20.10;70.10;;;;;;5013661;28;20038;-68
2021/12/29 10:19:06;;;;;;;3.78;0.95;;;20.10;70.10;;;;;;5013752;28;20034;-68
2021/12/29 10:21:35;;;;;;;3.17;1.00;;;20.10;70.10;;;;;;5013275;28;20404;-68
2021/12/29 10:24:02;;;;;;;2.97;1.10;;;20.10;70.20;;;;;;4964356;28;20062;-68
2021/12/29 10:26:31;;;;;;;4.03;1.10;;;20.10;70.30;;;;;;4995820;28;20030;-68
2021/12/29 10:29:02;;;;;;;5.63;1.17;;;20.10;70.40;;;;;;5013402;28;20038;-68
2021/12/29 10:31:37;;;;;;;3.00;0.90;;;20.10;70.50;;;;;;5012832;28;20037;-68
2021/12/29 10:34:34;;;;;;;5.47;1.38;;;20.10;70.60;;;;;;5012935;28;20030;-68
2021/12/29 10:37:07;;;;;;;5.10;1.20;;;20.00;70.80;;;;;;5009512;28;20128;-68
2021/12/29 10:39:45;;;;;;;3.92;1.33;;;20.00;71.00;;;;;;5013136;28;20026;-68
2021/12/29 10:42:22;;;;;;;4.55;1.38;;;20.00;71.40;;;;;;5012867;28;20030;-68
2021/12/29 10:44:59;;;;;;;3.95;1.13;;;20.00;71.30;;;;;;5012381;28;20052;-68
2021/12/29 10:47:33;;;;;;;4.68;1.20;;;20.00;71.30;;;;;;5012539;28;20093;-68
2021/12/29 10:50:11;;;;;;;4.38;1.38;;;20.00;71.50;;;;;;5012714;28;20042;-68
2021/12/29 10:52:42;;;;;;;3.83;1.60;;;20.00;71.80;;;;;;5012800;28;20044;-68
2021/12/29 10:55:18;;;;;;;3.72;1.55;;;20.00;72.60;;;;;;4995261;28;20033;-68
2021/12/29 10:57:46;;;;;;;4.35;1.60;;;19.90;72.50;;;;;;4995352;28;20041;-68
2021/12/29 11:00:18;;;;;;;2.85;1.33;;;19.90;73.00;;;;;;5013090;28;20391;-68
2021/12/29 11:02:46;;;;;;;3.58;1.40;;;19.80;72.90;;;;;;5012801;28;20128;-68
2021/12/29 11:05:13;;;;;;;5.38;3.83;;;19.80;72.90;;;;;;5012705;28;20519;-68
2021/12/29 11:07:41;;;;;;;3.55;2.28;;;19.80;73.30;;;;;;5012398;28;20838;-68
2021/12/29 11:10:12;;;;;;;6.43;3.67;;;19.80;73.30;;;;;;4995233;28;20065;-68
2021/12/29 11:12:56;;;;;;;6.13;2.30;;;19.80;73.40;;;;;;5012361;28;20040;-68
2021/12/29 11:15:40;;;;;;;4.85;1.90;;;19.80;73.70;;;;;;5012637;28;20085;-68
2021/12/29 11:18:09;;;;;;;5.30;2.08;;;19.80;73.80;;;;;;5012309;28;20037;-67
2021/12/29 11:20:37;;;;;;;5.75;1.67;;;19.70;74.20;;;;;;5012138;28;20034;-68
2021/12/29 11:23:14;;;;;;;3.05;1.40;;;19.70;74.60;;;;;;5012420;28;20030;-68
2021/12/29 11:25:42;;;;;;;2.90;1.30;;;19.70;74.30;;;;;;4994922;28;20073;-68
2021/12/29 11:28:26;;;;;;;4.53;1.20;;;19.70;74.70;;;;;;5012172;28;20105;-67
2021/12/29 11:30:54;;;;;;;3.72;1.52;;;19.60;75.40;;;;;;4994315;28;20128;-68
2021/12/29 11:33:21;;;;;;;4.20;1.30;;;19.60;75.40;;;;;;4994590;28;20060;-68
2021/12/29 11:35:50;;;;;;;1.73;1.10;;;19.60;75.80;;;;;;4994601;28;20110;-67
2021/12/29 11:38:18;;;;;;;3.70;1.10;;;19.50;75.60;;;;;;5012055;28;20044;-68
2021/12/29 11:40:48;;;;;;;2.28;1.23;;;19.50;75.80;;;;;;5012023;28;20037;-68
2021/12/29 11:43:16;;;;;;;2.90;1.10;;;19.50;75.90;;;;;;5012087;28;20120;-68
2021/12/29 11:45:45;;;;;;;5.55;1.25;;;19.50;76.30;;;;;;5011852;28;20109;-68
2021/12/29 11:48:13;;;;;;;3.85;1.38;;;19.50;76.00;;;;;;5011609;28;20548;-68
2021/12/29 11:50:51;;;;;;;5.50;1.25;;;19.40;76.60;;;;;;5010401;28;20046;-68
2021/12/29 11:53:55;;;;;;;3.83;1.20;;;19.40;76.60;;;;;;5011610;28;20026;-68
2021/12/29 11:56:23;;;;;;;4.78;1.20;;;19.40;76.50;;;;;;5011754;28;20108;-68
2021/12/29 11:58:50;;;;;;;3.55;1.20;;;19.30;76.70;;;;;;5011344;28;20049;-68
2021/12/29 12:01:22;;;;;;;3.97;1.50;;;19.40;77.10;;;;;;4994307;28;20032;-67
2021/12/29 12:03:53;;;;;;;2.92;1.45;;;19.30;77.00;;;;;;5011890;28;20100;-67
2021/12/29 12:06:43;;;;;;;6.53;1.80;;;19.30;78.20;;;;;;5011740;28;20037;-68
2021/12/29 12:09:21;;;;;;;6.13;1.35;;;19.30;78.00;;;;;;5011943;28;20038;-68
2021/12/29 12:11:52;;;;;;;4.43;1.60;;;19.30;77.50;;;;;;4978025;28;20057;-68
2021/12/29 12:14:21;;;;;;;3.25;1.00;;;19.30;77.80;;;;;;5011554;28;20507;-68
2021/12/29 12:16:51;;;;;;;4.20;1.00;;;19.30;77.30;;;;;;5011883;28;20045;-68
2021/12/29 12:19:22;;;;;;;2.95;1.02;;;19.20;76.90;;;;;;5011999;28;20117;-68
2021/12/29 12:21:49;;;;;;;4.13;1.30;;;19.30;77.00;;;;;;5012052;28;20026;-68
2021/12/29 12:24:25;;;;;;;6.85;1.48;;;19.20;77.40;;;;;;4978124;28;20116;-68
2021/12/29 12:27:05;;;;;;;3.95;1.30;;;19.20;77.20;;;;;;5011754;28;20113;-68
2021/12/29 12:29:34;;;;;;;4.53;1.35;;;19.20;77.20;;;;;;5011481;28;20060;-68
2021/12/29 12:32:22;;;;;;;2.22;1.20;;;19.10;76.90;;;;;;5011625;28;20151;-68
2021/12/29 12:34:55;;;;;;;3.47;1.50;;;19.10;77.40;;;;;;5011293;28;20034;-68
2021/12/29 12:37:30;;;;;;;4.68;1.20;;;19.10;77.70;;;;;;4995103;28;20090;-68
2021/12/29 12:40:22;;;;;;;5.72;1.83;;;19.10;78.00;;;;;;4994926;28;20404;-68
2021/12/29 12:43:01;;;;;;;3.28;1.48;;;19.10;77.90;;;;;;5011422;28;20057;-68
2021/12/29 12:45:35;;;;;;;3.30;1.33;;;19.00;78.30;;;;;;5011617;28;20030;-68
2021/12/29 12:48:08;;;;;;;3.25;1.63;;;19.00;78.40;;;;;;5011797;28;20030;-68
2021/12/29 12:50:36;;;;;;;4.50;1.65;;;19.00;78.80;;;;;;5011369;28;20049;-68
2021/12/29 12:53:03;;;;;;;3.65;1.60;;;19.00;78.80;;;;;;4978033;28;20033;-68
2021/12/29 12:55:32;;;;;;;3.53;1.30;;;18.90;79.40;;;;;;5011686;28;20034;-68
2021/12/29 12:58:09;;;;;;;4.28;1.50;;;18.80;79.60;;;;;;5011452;28;20065;-68
2021/12/29 13:00:40;;;;;;;4.47;1.30;;;18.80;79.70;;;;;;5011413;28;20117;-68